Terminal Aerodrome Forecast
Issued by NWS Billings, MT

Home | Current Version | Previous Version | Text Only | Print | Product List | Glossary On
Versions: 1 2 3 4 5 6 7 8 9 10 11 12 13 14 15 16
000
FTUS45 KBYZ 061728
TAFBIL
TAF
KBIL 061728Z 0618/0718 04011G18KT 6SM FU SCT030 BKN040
     FM070300 05008KT 4SM FU SCT030 BKN050
     FM071500 08012KT P6SM VCSH SCT030 BKN040=

USA.gov is the U.S. government's official web portal to all federal, state and local government web resources and services.